Kelowna Airport
CYLW : now visible

Airfield :











YOU CAN JOIN US ON...

 
LOGIN :

Register | Disclaimer

   EN    FR    IT 

 









Legend :    VFR   Marginal VFR   IFR   Intensive IFR   Very Intensive IFR
Visi :
Ceiling :
>= 8 km
>= 3000ft
5 to 8 km
1000 to 3000 ft
1500m to 5 km
500 to 1000 ft
800 to 1500m
200 to 500 ft
< 800m
< 200 ft
Symbols :   Thunderstorms  Fog  Heavy snow  Heavy precipitations  Wind > 20 kt






- Airport Elevation : 1409 ft
- IATA code : YLW


CYLW - Kelowna

CURRENT METAR :
  • 231400Z AUTO VRB02KT 9SM BKN065 OVC088 M01/M04 A2987 RMK SLP135

EXPIRED METARs :
  • 231300Z AUTO 05003KT 360V080 9SM FEW046 BKN055 OVC072 M00/M04 A2990 RMK SLP141
  • 231200Z AUTO VRB02KT 9SM BKN055 OVC067 M00/M03 A2994 RMK SLP153

TAF TAF CYLW
Valid from the 23 at 13:00 until the 24 at 01:00 UTC


231249Z 2313/2401 36005KT P6SM BKN050 OVC070
TEMPO 2313/2315 3SM -SN BKN030 OVC050
FM231500 36005KT 3SM -SN OVC030
TEMPO 2315/2320 11/2SM -SHSN OVC015
FM232000 19008KT P6SM FEW005 SCT070 RMK FCST BASED ON AUTO OBS. NXT FCST BY 231900Z



MET'MAP, your aeronautical weather chart ! - Copyright ORBIFLY December 2007 - Disclaimer

ORBIFLY MET'MAP TEAM :

Programming & Development : Alexandra Zaïnal
Concept & original design : Baudouin d'Aumeries
Assistance for programming : Marc-Olivier Méhu
Technical & hardware support : Manuel Goepfert

Contact : metmap@orbifly.com




SOURCES & CREDITS :

   NOAA       Earth
Advisory